sensor_id;sensor_type;location;lat;lon;timestamp;temperature;humidity
15143;DHT22;7672;50.834;6.286;2022-08-21T00:00:41;18.70;99.90
15143;DHT22;7672;50.834;6.286;2022-08-21T00:03:11;18.70;99.90
15143;DHT22;7672;50.834;6.286;2022-08-21T00:05:43;18.60;99.90
15143;DHT22;7672;50.834;6.286;2022-08-21T00:08:13;18.60;99.90
15143;DHT22;7672;50.834;6.286;2022-08-21T00:10:41;18.60;99.90
15143;DHT22;7672;50.834;6.286;2022-08-21T00:13:10;18.60;99.90
15143;DHT22;7672;50.834;6.286;2022-08-21T00:15:40;18.60;99.90
15143;DHT22;7672;50.834;6.286;2022-08-21T00:18:08;18.60;99.90
15143;DHT22;7672;50.834;6.286;2022-08-21T00:20:38;18.60;99.90
15143;DHT22;7672;50.834;6.286;2022-08-21T00:23:06;18.50;99.90
15143;DHT22;7672;50.834;6.286;2022-08-21T00:25:34;18.70;99.90
15143;DHT22;7672;50.834;6.286;2022-08-21T00:28:01;18.50;99.90
15143;DHT22;7672;50.834;6.286;2022-08-21T00:30:29;18.50;99.90
15143;DHT22;7672;50.834;6.286;2022-08-21T00:32:58;18.40;99.90
15143;DHT22;7672;50.834;6.286;2022-08-21T00:35:30;18.50;99.90
15143;DHT22;7672;50.834;6.286;2022-08-21T00:37:59;18.40;99.90
15143;DHT22;7672;50.834;6.286;2022-08-21T00:40:34;18.40;99.90
15143;DHT22;7672;50.834;6.286;2022-08-21T00:43:08;18.30;99.90
15143;DHT22;7672;50.834;6.286;2022-08-21T00:45:38;18.30;99.90
15143;DHT22;7672;50.834;6.286;2022-08-21T00:48:06;18.30;99.90
15143;DHT22;7672;50.834;6.286;2022-08-21T00:50:43;18.30;99.90
15143;DHT22;7672;50.834;6.286;2022-08-21T00:53:13;18.20;99.90
15143;DHT22;7672;50.834;6.286;2022-08-21T00:55:41;18.30;99.90
15143;DHT22;7672;50.834;6.286;2022-08-21T00:58:13;18.20;99.90
15143;DHT22;7672;50.834;6.286;2022-08-21T01:00:45;18.30;99.90
15143;DHT22;7672;50.834;6.286;2022-08-21T01:03:19;18.20;99.90
15143;DHT22;7672;50.834;6.286;2022-08-21T01:05:53;18.20;99.90
15143;DHT22;7672;50.834;6.286;2022-08-21T01:08:21;18.20;99.90
15143;DHT22;7672;50.834;6.286;2022-08-21T01:10:52;18.20;99.90
15143;DHT22;7672;50.834;6.286;2022-08-21T01:13:28;18.20;99.90
15143;DHT22;7672;50.834;6.286;2022-08-21T01:16:02;18.20;99.90
15143;DHT22;7672;50.834;6.286;2022-08-21T01:18:32;18.20;99.90
15143;DHT22;7672;50.834;6.286;2022-08-21T01:21:16;18.20;99.90
15143;DHT22;7672;50.834;6.286;2022-08-21T01:23:52;18.20;99.90
15143;DHT22;7672;50.834;6.286;2022-08-21T01:26:25;18.60;99.90
15143;DHT22;7672;50.834;6.286;2022-08-21T01:32:10;18.20;99.90
15143;DHT22;7672;50.834;6.286;2022-08-21T01:34:44;18.40;99.90
15143;DHT22;7672;50.834;6.286;2022-08-21T01:37:13;18.20;99.90
15143;DHT22;7672;50.834;6.286;2022-08-21T01:39:43;18.20;99.90
15143;DHT22;7672;50.834;6.286;2022-08-21T01:42:11;18.40;99.90
15143;DHT22;7672;50.834;6.286;2022-08-21T01:44:42;18.20;99.90
15143;DHT22;7672;50.834;6.286;2022-08-21T01:47:11;18.10;99.90
15143;DHT22;7672;50.834;6.286;2022-08-21T01:49:41;18.20;99.90
15143;DHT22;7672;50.834;6.286;2022-08-21T01:52:11;18.10;99.90
15143;DHT22;7672;50.834;6.286;2022-08-21T01:54:42;18.10;99.90
15143;DHT22;7672;50.834;6.286;2022-08-21T01:57:10;18.40;99.90
15143;DHT22;7672;50.834;6.286;2022-08-21T01:59:40;18.10;99.90
15143;DHT22;7672;50.834;6.286;2022-08-21T02:02:10;18.50;99.90
15143;DHT22;7672;50.834;6.286;2022-08-21T02:04:39;18.10;99.90
15143;DHT22;7672;50.834;6.286;2022-08-21T02:07:12;18.10;99.90
15143;DHT22;7672;50.834;6.286;2022-08-21T02:09:39;18.10;99.90
15143;DHT22;7672;50.834;6.286;2022-08-21T02:12:11;18.10;99.90
15143;DHT22;7672;50.834;6.286;2022-08-21T02:14:38;18.10;99.90
15143;DHT22;7672;50.834;6.286;2022-08-21T02:17:05;18.10;99.90
15143;DHT22;7672;50.834;6.286;2022-08-21T02:19:36;18.40;99.90
15143;DHT22;7672;50.834;6.286;2022-08-21T02:22:08;18.00;99.90
15143;DHT22;7672;50.834;6.286;2022-08-21T02:24:36;18.00;99.90
15143;DHT22;7672;50.834;6.286;2022-08-21T02:27:24;18.00;99.90
15143;DHT22;7672;50.834;6.286;2022-08-21T02:29:55;17.90;99.90
15143;DHT22;7672;50.834;6.286;2022-08-21T02:32:26;18.40;99.90
15143;DHT22;7672;50.834;6.286;2022-08-21T02:35:00;17.90;99.90
15143;DHT22;7672;50.834;6.286;2022-08-21T02:37:27;17.60;99.90
15143;DHT22;7672;50.834;6.286;2022-08-21T02:40:03;17.90;99.90
15143;DHT22;7672;50.834;6.286;2022-08-21T02:42:30;17.80;99.90
15143;DHT22;7672;50.834;6.286;2022-08-21T02:45:03;17.90;99.90
15143;DHT22;7672;50.834;6.286;2022-08-21T02:47:31;17.80;99.90
15143;DHT22;7672;50.834;6.286;2022-08-21T02:50:00;17.80;99.90
15143;DHT22;7672;50.834;6.286;2022-08-21T02:52:27;17.80;99.90
15143;DHT22;7672;50.834;6.286;2022-08-21T02:54:54;17.80;99.90
15143;DHT22;7672;50.834;6.286;2022-08-21T02:57:21;17.80;99.90
15143;DHT22;7672;50.834;6.286;2022-08-21T02:59:48;17.80;99.90
15143;DHT22;7672;50.834;6.286;2022-08-21T03:02:14;17.80;99.90
15143;DHT22;7672;50.834;6.286;2022-08-21T03:04:44;17.70;99.90
15143;DHT22;7672;50.834;6.286;2022-08-21T03:07:12;17.70;99.90
15143;DHT22;7672;50.834;6.286;2022-08-21T03:09:39;17.70;99.90
15143;DHT22;7672;50.834;6.286;2022-08-21T03:12:24;17.70;99.90
15143;DHT22;7672;50.834;6.286;2022-08-21T03:14:55;17.70;99.90
15143;DHT22;7672;50.834;6.286;2022-08-21T03:17:22;17.70;99.90
15143;DHT22;7672;50.834;6.286;2022-08-21T03:19:55;17.70;99.90
15143;DHT22;7672;50.834;6.286;2022-08-21T03:22:23;17.70;99.90
15143;DHT22;7672;50.834;6.286;2022-08-21T03:24:52;18.00;99.90
15143;DHT22;7672;50.834;6.286;2022-08-21T03:27:29;17.70;99.90
15143;DHT22;7672;50.834;6.286;2022-08-21T03:30:02;17.70;99.90
15143;DHT22;7672;50.834;6.286;2022-08-21T03:32:43;17.70;99.90
15143;DHT22;7672;50.834;6.286;2022-08-21T03:35:21;17.60;99.90
15143;DHT22;7672;50.834;6.286;2022-08-21T03:37:48;17.70;99.90
15143;DHT22;7672;50.834;6.286;2022-08-21T03:40:18;17.70;99.90
15143;DHT22;7672;50.834;6.286;2022-08-21T03:42:47;17.70;99.90
15143;DHT22;7672;50.834;6.286;2022-08-21T03:45:22;17.70;99.90
15143;DHT22;7672;50.834;6.286;2022-08-21T03:48:00;18.00;99.90
15143;DHT22;7672;50.834;6.286;2022-08-21T03:50:34;17.70;99.90
15143;DHT22;7672;50.834;6.286;2022-08-21T03:53:19;17.70;99.90
15143;DHT22;7672;50.834;6.286;2022-08-21T03:55:55;17.70;99.90
15143;DHT22;7672;50.834;6.286;2022-08-21T03:58:27;17.70;99.90
15143;DHT22;7672;50.834;6.286;2022-08-21T04:00:58;17.70;99.90
15143;DHT22;7672;50.834;6.286;2022-08-21T04:03:27;18.00;99.90
15143;DHT22;7672;50.834;6.286;2022-08-21T04:05:55;17.60;99.90
15143;DHT22;7672;50.834;6.286;2022-08-21T04:08:23;17.60;99.90
15143;DHT22;7672;50.834;6.286;2022-08-21T04:10:53;17.60;99.90
15143;DHT22;7672;50.834;6.286;2022-08-21T04:13:26;17.60;99.90
15143;DHT22;7672;50.834;6.286;2022-08-21T04:15:55;17.60;99.90
15143;DHT22;7672;50.834;6.286;2022-08-21T04:18:25;17.60;99.90
15143;DHT22;7672;50.834;6.286;2022-08-21T04:20:59;17.60;99.90
15143;DHT22;7672;50.834;6.286;2022-08-21T04:23:30;17.70;99.90
15143;DHT22;7672;50.834;6.286;2022-08-21T04:25:58;17.60;99.90
15143;DHT22;7672;50.834;6.286;2022-08-21T04:28:27;17.60;99.90
15143;DHT22;7672;50.834;6.286;2022-08-21T04:31:04;17.30;99.90
15143;DHT22;7672;50.834;6.286;2022-08-21T04:33:36;17.50;99.90
15143;DHT22;7672;50.834;6.286;2022-08-21T04:36:04;17.60;99.90
15143;DHT22;7672;50.834;6.286;2022-08-21T04:38:35;17.60;99.90
15143;DHT22;7672;50.834;6.286;2022-08-21T04:41:04;17.60;99.90
15143;DHT22;7672;50.834;6.286;2022-08-21T04:43:32;17.60;99.90
15143;DHT22;7672;50.834;6.286;2022-08-21T04:46:04;17.60;99.90
15143;DHT22;7672;50.834;6.286;2022-08-21T04:48:39;17.60;99.90
15143;DHT22;7672;50.834;6.286;2022-08-21T04:51:40;17.60;99.90
15143;DHT22;7672;50.834;6.286;2022-08-21T04:54:12;17.70;99.90
15143;DHT22;7672;50.834;6.286;2022-08-21T04:56:49;17.60;99.90
15143;DHT22;7672;50.834;6.286;2022-08-21T04:59:41;17.60;99.90
15143;DHT22;7672;50.834;6.286;2022-08-21T05:02:19;17.60;99.90
15143;DHT22;7672;50.834;6.286;2022-08-21T05:05:06;17.70;99.90
15143;DHT22;7672;50.834;6.286;2022-08-21T05:07:47;17.70;99.90
15143;DHT22;7672;50.834;6.286;2022-08-21T05:10:39;17.70;99.90
15143;DHT22;7672;50.834;6.286;2022-08-21T05:13:16;17.80;99.90
15143;DHT22;7672;50.834;6.286;2022-08-21T05:15:44;18.20;99.90
15143;DHT22;7672;50.834;6.286;2022-08-21T05:18:13;17.90;99.90
15143;DHT22;7672;50.834;6.286;2022-08-21T05:20:47;18.00;99.90
15143;DHT22;7672;50.834;6.286;2022-08-21T05:23:38;18.00;99.90
15143;DHT22;7672;50.834;6.286;2022-08-21T05:26:30;18.10;99.90
15143;DHT22;7672;50.834;6.286;2022-08-21T05:29:09;18.10;99.90
15143;DHT22;7672;50.834;6.286;2022-08-21T05:31:38;18.10;99.90
15143;DHT22;7672;50.834;6.286;2022-08-21T05:34:17;18.20;99.90
15143;DHT22;7672;50.834;6.286;2022-08-21T05:36:56;18.30;99.90
15143;DHT22;7672;50.834;6.286;2022-08-21T05:39:23;18.30;99.90
15143;DHT22;7672;50.834;6.286;2022-08-21T05:41:50;18.40;99.90
15143;DHT22;7672;50.834;6.286;2022-08-21T05:44:17;18.40;99.90
15143;DHT22;7672;50.834;6.286;2022-08-21T05:46:47;19.10;99.90
15143;DHT22;7672;50.834;6.286;2022-08-21T05:49:22;18.70;99.90
15143;DHT22;7672;50.834;6.286;2022-08-21T05:51:49;18.70;99.90
15143;DHT22;7672;50.834;6.286;2022-08-21T05:54:16;19.00;99.90
15143;DHT22;7672;50.834;6.286;2022-08-21T05:56:43;19.10;99.90
15143;DHT22;7672;50.834;6.286;2022-08-21T05:59:11;19.40;99.90
15143;DHT22;7672;50.834;6.286;2022-08-21T06:01:40;19.60;99.90
15143;DHT22;7672;50.834;6.286;2022-08-21T06:04:08;19.80;99.90
15143;DHT22;7672;50.834;6.286;2022-08-21T06:06:39;20.10;99.90
15143;DHT22;7672;50.834;6.286;2022-08-21T06:09:06;20.30;99.90
15143;DHT22;7672;50.834;6.286;2022-08-21T06:11:34;20.50;99.90
15143;DHT22;7672;50.834;6.286;2022-08-21T06:14:01;20.70;99.90
15143;DHT22;7672;50.834;6.286;2022-08-21T06:16:28;21.30;99.90
15143;DHT22;7672;50.834;6.286;2022-08-21T06:18:55;21.10;99.90
15143;DHT22;7672;50.834;6.286;2022-08-21T06:21:28;21.30;99.90
15143;DHT22;7672;50.834;6.286;2022-08-21T06:23:55;21.60;99.90
15143;DHT22;7672;50.834;6.286;2022-08-21T06:26:22;21.70;99.90
15143;DHT22;7672;50.834;6.286;2022-08-21T06:28:50;22.00;99.90
15143;DHT22;7672;50.834;6.286;2022-08-21T06:31:20;22.20;99.90
15143;DHT22;7672;50.834;6.286;2022-08-21T06:33:49;22.40;99.90
15143;DHT22;7672;50.834;6.286;2022-08-21T06:36:17;22.90;99.90
15143;DHT22;7672;50.834;6.286;2022-08-21T06:38:44;23.00;99.90
15143;DHT22;7672;50.834;6.286;2022-08-21T06:41:18;23.20;99.90
15143;DHT22;7672;50.834;6.286;2022-08-21T06:43:53;23.50;99.90
15143;DHT22;7672;50.834;6.286;2022-08-21T06:46:20;23.90;99.90
15143;DHT22;7672;50.834;6.286;2022-08-21T06:48:48;24.10;99.90
15143;DHT22;7672;50.834;6.286;2022-08-21T06:51:16;24.50;99.90
15143;DHT22;7672;50.834;6.286;2022-08-21T06:53:43;24.70;99.90
15143;DHT22;7672;50.834;6.286;2022-08-21T06:56:10;25.00;99.90
15143;DHT22;7672;50.834;6.286;2022-08-21T06:58:37;25.30;99.90
15143;DHT22;7672;50.834;6.286;2022-08-21T07:01:04;25.70;99.90
15143;DHT22;7672;50.834;6.286;2022-08-21T07:03:37;26.00;99.90
15143;DHT22;7672;50.834;6.286;2022-08-21T07:06:07;26.20;99.90
15143;DHT22;7672;50.834;6.286;2022-08-21T07:08:36;26.50;99.90
15143;DHT22;7672;50.834;6.286;2022-08-21T07:11:12;26.90;99.90
15143;DHT22;7672;50.834;6.286;2022-08-21T07:13:43;27.20;99.90
15143;DHT22;7672;50.834;6.286;2022-08-21T07:16:10;27.50;99.90
15143;DHT22;7672;50.834;6.286;2022-08-21T07:18:37;27.90;99.90
15143;DHT22;7672;50.834;6.286;2022-08-21T07:21:06;28.20;99.90
15143;DHT22;7672;50.834;6.286;2022-08-21T07:23:41;28.60;99.90
15143;DHT22;7672;50.834;6.286;2022-08-21T07:26:14;29.00;99.90
15143;DHT22;7672;50.834;6.286;2022-08-21T07:28:43;29.40;99.90
15143;DHT22;7672;50.834;6.286;2022-08-21T07:31:11;29.80;99.90
15143;DHT22;7672;50.834;6.286;2022-08-21T07:33:41;30.10;99.90
15143;DHT22;7672;50.834;6.286;2022-08-21T07:36:10;30.50;99.90
15143;DHT22;7672;50.834;6.286;2022-08-21T07:38:37;30.90;99.90
15143;DHT22;7672;50.834;6.286;2022-08-21T07:41:13;31.20;99.90
15143;DHT22;7672;50.834;6.286;2022-08-21T07:43:46;31.70;98.80
15143;DHT22;7672;50.834;6.286;2022-08-21T07:46:14;32.10;98.10
15143;DHT22;7672;50.834;6.286;2022-08-21T07:48:41;32.60;96.70
15143;DHT22;7672;50.834;6.286;2022-08-21T07:51:11;33.00;96.30
15143;DHT22;7672;50.834;6.286;2022-08-21T07:53:41;33.40;94.60
15143;DHT22;7672;50.834;6.286;2022-08-21T07:56:08;33.80;93.80
15143;DHT22;7672;50.834;6.286;2022-08-21T07:58:35;34.10;92.70
15143;DHT22;7672;50.834;6.286;2022-08-21T08:01:02;34.50;91.70
15143;DHT22;7672;50.834;6.286;2022-08-21T08:03:29;34.90;91.20
15143;DHT22;7672;50.834;6.286;2022-08-21T08:05:56;35.20;88.70
15143;DHT22;7672;50.834;6.286;2022-08-21T08:08:26;35.50;88.30
15143;DHT22;7672;50.834;6.286;2022-08-21T08:10:54;35.80;86.90
15143;DHT22;7672;50.834;6.286;2022-08-21T08:13:26;36.10;85.30
15143;DHT22;7672;50.834;6.286;2022-08-21T08:15:55;36.40;84.30
15143;DHT22;7672;50.834;6.286;2022-08-21T08:18:25;36.70;82.80
15143;DHT22;7672;50.834;6.286;2022-08-21T08:20:52;36.90;79.50
15143;DHT22;7672;50.834;6.286;2022-08-21T08:23:18;37.00;80.00
15143;DHT22;7672;50.834;6.286;2022-08-21T08:25:48;37.10;78.80
15143;DHT22;7672;50.834;6.286;2022-08-21T08:28:15;37.10;77.50
15143;DHT22;7672;50.834;6.286;2022-08-21T08:30:45;37.20;77.50
15143;DHT22;7672;50.834;6.286;2022-08-21T08:33:13;37.20;76.40
15143;DHT22;7672;50.834;6.286;2022-08-21T08:35:42;37.20;77.80
15143;DHT22;7672;50.834;6.286;2022-08-21T08:38:20;37.30;75.80
15143;DHT22;7672;50.834;6.286;2022-08-21T08:41:14;37.40;76.00
15143;DHT22;7672;50.834;6.286;2022-08-21T08:44:04;37.60;76.90
15143;DHT22;7672;50.834;6.286;2022-08-21T08:46:48;37.70;74.40
15143;DHT22;7672;50.834;6.286;2022-08-21T08:49:42;38.00;73.60
15143;DHT22;7672;50.834;6.286;2022-08-21T08:52:53;38.20;73.30
15143;DHT22;7672;50.834;6.286;2022-08-21T08:55:41;38.30;72.20
15143;DHT22;7672;50.834;6.286;2022-08-21T09:01:20;38.40;70.20
15143;DHT22;7672;50.834;6.286;2022-08-21T09:04:03;38.40;70.40
15143;DHT22;7672;50.834;6.286;2022-08-21T09:10:20;38.40;71.40
15143;DHT22;7672;50.834;6.286;2022-08-21T09:13:24;38.50;70.50
15143;DHT22;7672;50.834;6.286;2022-08-21T09:28:33;39.20;67.20
15143;DHT22;7672;50.834;6.286;2022-08-21T09:31:25;39.50;67.40
15143;DHT22;7672;50.834;6.286;2022-08-21T09:34:10;39.60;67.80
15143;DHT22;7672;50.834;6.286;2022-08-21T09:36:50;39.80;64.70
15143;DHT22;7672;50.834;6.286;2022-08-21T09:40:19;40.00;64.30
15143;DHT22;7672;50.834;6.286;2022-08-21T09:42:33;40.10;64.50
15143;DHT22;7672;50.834;6.286;2022-08-21T09:45:16;40.20;63.80
15143;DHT22;7672;50.834;6.286;2022-08-21T09:47:45;40.30;63.10
15143;DHT22;7672;50.834;6.286;2022-08-21T09:50:24;40.40;63.00
15143;DHT22;7672;50.834;6.286;2022-08-21T09:52:58;40.40;62.10
15143;DHT22;7672;50.834;6.286;2022-08-21T09:55:34;40.50;62.60
15143;DHT22;7672;50.834;6.286;2022-08-21T09:58:35;40.60;62.50
15143;DHT22;7672;50.834;6.286;2022-08-21T10:01:05;40.70;62.10
15143;DHT22;7672;50.834;6.286;2022-08-21T10:03:39;40.80;61.00
15143;DHT22;7672;50.834;6.286;2022-08-21T10:06:08;40.90;60.90
15143;DHT22;7672;50.834;6.286;2022-08-21T10:08:40;40.90;59.60
15143;DHT22;7672;50.834;6.286;2022-08-21T10:11:18;40.90;59.80
15143;DHT22;7672;50.834;6.286;2022-08-21T10:17:05;40.70;59.00
15143;DHT22;7672;50.834;6.286;2022-08-21T10:25:23;40.40;59.80
15143;DHT22;7672;50.834;6.286;2022-08-21T10:37:01;39.70;59.70
15143;DHT22;7672;50.834;6.286;2022-08-21T10:46:36;39.50;60.10
15143;DHT22;7672;50.834;6.286;2022-08-21T11:01:01;39.80;59.00
15143;DHT22;7672;50.834;6.286;2022-08-21T11:03:52;39.90;59.20
15143;DHT22;7672;50.834;6.286;2022-08-21T11:10:54;39.90;59.10
15143;DHT22;7672;50.834;6.286;2022-08-21T11:13:46;40.00;59.00
15143;DHT22;7672;50.834;6.286;2022-08-21T11:16:39;40.10;58.60
15143;DHT22;7672;50.834;6.286;2022-08-21T11:19:50;40.10;57.80
15143;DHT22;7672;50.834;6.286;2022-08-21T11:25:31;40.20;57.80
15143;DHT22;7672;50.834;6.286;2022-08-21T11:28:32;40.30;58.00
15143;DHT22;7672;50.834;6.286;2022-08-21T11:36:52;40.30;57.00
15143;DHT22;7672;50.834;6.286;2022-08-21T11:45:31;40.00;56.50
15143;DHT22;7672;50.834;6.286;2022-08-21T11:51:00;39.60;57.10
15143;DHT22;7672;50.834;6.286;2022-08-21T11:53:46;39.40;57.30
15143;DHT22;7672;50.834;6.286;2022-08-21T11:56:32;39.20;56.90
15143;DHT22;7672;50.834;6.286;2022-08-21T11:59:32;39.00;56.60
15143;DHT22;7672;50.834;6.286;2022-08-21T12:02:13;38.80;57.30
15143;DHT22;7672;50.834;6.286;2022-08-21T12:04:55;38.60;57.00
15143;DHT22;7672;50.834;6.286;2022-08-21T12:07:39;38.50;57.50
15143;DHT22;7672;50.834;6.286;2022-08-21T12:10:15;38.30;57.20
15143;DHT22;7672;50.834;6.286;2022-08-21T12:12:47;38.20;56.80
15143;DHT22;7672;50.834;6.286;2022-08-21T12:18:21;37.80;57.60
15143;DHT22;7672;50.834;6.286;2022-08-21T12:21:23;37.50;58.30
15143;DHT22;7672;50.834;6.286;2022-08-21T12:26:55;37.10;59.10
15143;DHT22;7672;50.834;6.286;2022-08-21T12:29:23;36.80;58.50
15143;DHT22;7672;50.834;6.286;2022-08-21T12:32:00;36.70;58.00
15143;DHT22;7672;50.834;6.286;2022-08-21T12:35:02;36.40;58.70
15143;DHT22;7672;50.834;6.286;2022-08-21T12:40:43;36.10;59.40
15143;DHT22;7672;50.834;6.286;2022-08-21T12:43:19;36.00;59.70
15143;DHT22;7672;50.834;6.286;2022-08-21T12:45:51;35.90;59.20
15143;DHT22;7672;50.834;6.286;2022-08-21T12:48:41;35.80;59.80
15143;DHT22;7672;50.834;6.286;2022-08-21T12:51:16;35.70;59.70
15143;DHT22;7672;50.834;6.286;2022-08-21T12:53:57;35.60;59.70
15143;DHT22;7672;50.834;6.286;2022-08-21T12:56:28;35.50;60.10
15143;DHT22;7672;50.834;6.286;2022-08-21T12:59:07;35.50;60.00
15143;DHT22;7672;50.834;6.286;2022-08-21T13:01:46;35.40;60.10
15143;DHT22;7672;50.834;6.286;2022-08-21T13:04:36;35.30;60.30
15143;DHT22;7672;50.834;6.286;2022-08-21T13:07:09;35.20;60.00
15143;DHT22;7672;50.834;6.286;2022-08-21T13:09:48;35.10;60.80
15143;DHT22;7672;50.834;6.286;2022-08-21T13:12:21;35.00;61.10
15143;DHT22;7672;50.834;6.286;2022-08-21T13:14:57;34.90;61.80
15143;DHT22;7672;50.834;6.286;2022-08-21T13:17:31;34.80;61.50
15143;DHT22;7672;50.834;6.286;2022-08-21T13:20:20;34.80;61.50
15143;DHT22;7672;50.834;6.286;2022-08-21T13:22:49;34.70;62.30
15143;DHT22;7672;50.834;6.286;2022-08-21T13:25:18;34.60;61.00
15143;DHT22;7672;50.834;6.286;2022-08-21T13:28:06;34.60;61.50
15143;DHT22;7672;50.834;6.286;2022-08-21T13:30:39;34.50;61.30
15143;DHT22;7672;50.834;6.286;2022-08-21T13:33:10;34.40;62.50
15143;DHT22;7672;50.834;6.286;2022-08-21T13:38:29;34.30;62.20
15143;DHT22;7672;50.834;6.286;2022-08-21T13:41:02;34.30;62.20
15143;DHT22;7672;50.834;6.286;2022-08-21T13:43:35;34.20;62.10
15143;DHT22;7672;50.834;6.286;2022-08-21T13:46:09;34.10;61.50
15143;DHT22;7672;50.834;6.286;2022-08-21T13:48:38;34.00;61.90
15143;DHT22;7672;50.834;6.286;2022-08-21T13:51:06;33.90;62.00
15143;DHT22;7672;50.834;6.286;2022-08-21T13:53:46;33.70;62.00
15143;DHT22;7672;50.834;6.286;2022-08-21T13:56:40;33.60;62.10
15143;DHT22;7672;50.834;6.286;2022-08-21T13:59:11;33.40;62.00
15143;DHT22;7672;50.834;6.286;2022-08-21T14:01:52;33.30;62.70
15143;DHT22;7672;50.834;6.286;2022-08-21T14:04:51;33.10;63.10
15143;DHT22;7672;50.834;6.286;2022-08-21T14:07:29;32.90;63.30
15143;DHT22;7672;50.834;6.286;2022-08-21T14:10:17;32.80;62.90
15143;DHT22;7672;50.834;6.286;2022-08-21T14:13:04;32.60;63.20
15143;DHT22;7672;50.834;6.286;2022-08-21T14:15:35;32.50;63.40
15143;DHT22;7672;50.834;6.286;2022-08-21T14:18:26;32.40;64.10
15143;DHT22;7672;50.834;6.286;2022-08-21T14:21:06;32.30;64.20
15143;DHT22;7672;50.834;6.286;2022-08-21T14:23:37;32.20;64.90
15143;DHT22;7672;50.834;6.286;2022-08-21T14:26:08;32.00;65.20
15143;DHT22;7672;50.834;6.286;2022-08-21T14:28:46;32.00;66.00
15143;DHT22;7672;50.834;6.286;2022-08-21T14:31:33;31.90;65.10
15143;DHT22;7672;50.834;6.286;2022-08-21T14:34:16;31.80;64.60
15143;DHT22;7672;50.834;6.286;2022-08-21T14:37:05;31.70;65.20
15143;DHT22;7672;50.834;6.286;2022-08-21T14:39:36;31.80;64.70
15143;DHT22;7672;50.834;6.286;2022-08-21T14:42:26;31.80;64.80
15143;DHT22;7672;50.834;6.286;2022-08-21T14:45:01;31.80;64.70
15143;DHT22;7672;50.834;6.286;2022-08-21T14:47:51;31.80;64.40
15143;DHT22;7672;50.834;6.286;2022-08-21T14:50:19;31.90;65.40
15143;DHT22;7672;50.834;6.286;2022-08-21T14:53:14;31.90;64.90
15143;DHT22;7672;50.834;6.286;2022-08-21T14:55:59;31.90;64.00
15143;DHT22;7672;50.834;6.286;2022-08-21T14:59:07;32.00;64.20
15143;DHT22;7672;50.834;6.286;2022-08-21T15:01:39;32.00;64.30
15143;DHT22;7672;50.834;6.286;2022-08-21T15:04:16;31.90;65.00
15143;DHT22;7672;50.834;6.286;2022-08-21T15:06:48;32.00;64.60
15143;DHT22;7672;50.834;6.286;2022-08-21T15:09:15;31.90;64.70
15143;DHT22;7672;50.834;6.286;2022-08-21T15:11:42;31.80;64.10
15143;DHT22;7672;50.834;6.286;2022-08-21T15:14:17;31.80;65.20
15143;DHT22;7672;50.834;6.286;2022-08-21T15:17:19;31.80;64.40
15143;DHT22;7672;50.834;6.286;2022-08-21T15:20:14;31.70;63.60
15143;DHT22;7672;50.834;6.286;2022-08-21T15:22:42;31.70;63.90
15143;DHT22;7672;50.834;6.286;2022-08-21T15:25:15;31.60;64.60
15143;DHT22;7672;50.834;6.286;2022-08-21T15:28:08;31.50;64.30
15143;DHT22;7672;50.834;6.286;2022-08-21T15:30:37;31.40;63.90
15143;DHT22;7672;50.834;6.286;2022-08-21T15:33:06;31.40;64.00
15143;DHT22;7672;50.834;6.286;2022-08-21T15:35:34;31.30;64.70
15143;DHT22;7672;50.834;6.286;2022-08-21T15:38:06;31.10;64.40
15143;DHT22;7672;50.834;6.286;2022-08-21T15:40:39;31.20;64.40
15143;DHT22;7672;50.834;6.286;2022-08-21T15:43:45;31.10;64.20
15143;DHT22;7672;50.834;6.286;2022-08-21T15:46:44;31.00;64.00
15143;DHT22;7672;50.834;6.286;2022-08-21T15:49:41;31.30;64.40
15143;DHT22;7672;50.834;6.286;2022-08-21T15:55:24;30.70;65.00
15143;DHT22;7672;50.834;6.286;2022-08-21T15:57:52;30.60;65.10
15143;DHT22;7672;50.834;6.286;2022-08-21T16:00:27;30.50;65.90
15143;DHT22;7672;50.834;6.286;2022-08-21T16:02:58;30.40;65.80
15143;DHT22;7672;50.834;6.286;2022-08-21T16:05:27;30.30;66.00
15143;DHT22;7672;50.834;6.286;2022-08-21T16:07:54;30.20;66.50
15143;DHT22;7672;50.834;6.286;2022-08-21T16:10:24;30.10;66.50
15143;DHT22;7672;50.834;6.286;2022-08-21T16:13:05;30.10;66.70
15143;DHT22;7672;50.834;6.286;2022-08-21T16:15:40;30.00;67.20
15143;DHT22;7672;50.834;6.286;2022-08-21T16:18:08;29.90;67.70
15143;DHT22;7672;50.834;6.286;2022-08-21T16:20:39;29.90;68.90
15143;DHT22;7672;50.834;6.286;2022-08-21T16:23:07;29.80;68.70
15143;DHT22;7672;50.834;6.286;2022-08-21T16:25:38;29.70;68.60
15143;DHT22;7672;50.834;6.286;2022-08-21T16:28:16;29.70;69.10
15143;DHT22;7672;50.834;6.286;2022-08-21T16:30:50;29.60;69.60
15143;DHT22;7672;50.834;6.286;2022-08-21T16:33:34;29.50;70.40
15143;DHT22;7672;50.834;6.286;2022-08-21T16:36:55;29.40;70.30
15143;DHT22;7672;50.834;6.286;2022-08-21T16:39:27;29.40;70.60
15143;DHT22;7672;50.834;6.286;2022-08-21T16:42:36;29.30;70.80
15143;DHT22;7672;50.834;6.286;2022-08-21T16:45:29;29.20;71.20
15143;DHT22;7672;50.834;6.286;2022-08-21T16:48:02;29.20;71.30
15143;DHT22;7672;50.834;6.286;2022-08-21T16:50:32;29.00;71.50
15143;DHT22;7672;50.834;6.286;2022-08-21T16:52:58;28.90;71.60
15143;DHT22;7672;50.834;6.286;2022-08-21T16:55:33;28.80;71.80
15143;DHT22;7672;50.834;6.286;2022-08-21T16:58:30;28.50;71.60
15143;DHT22;7672;50.834;6.286;2022-08-21T17:00:59;28.60;71.70
15143;DHT22;7672;50.834;6.286;2022-08-21T17:03:37;28.50;72.00
15143;DHT22;7672;50.834;6.286;2022-08-21T17:06:14;28.50;72.50
15143;DHT22;7672;50.834;6.286;2022-08-21T17:08:42;28.40;73.10
15143;DHT22;7672;50.834;6.286;2022-08-21T17:11:22;28.30;72.80
15143;DHT22;7672;50.834;6.286;2022-08-21T17:14:14;28.20;73.30
15143;DHT22;7672;50.834;6.286;2022-08-21T17:16:45;28.20;74.00
15143;DHT22;7672;50.834;6.286;2022-08-21T17:19:16;28.10;73.80
15143;DHT22;7672;50.834;6.286;2022-08-21T17:21:51;28.00;74.00
15143;DHT22;7672;50.834;6.286;2022-08-21T17:24:43;27.90;74.60
15143;DHT22;7672;50.834;6.286;2022-08-21T17:27:11;27.90;74.60
15143;DHT22;7672;50.834;6.286;2022-08-21T17:29:40;27.80;74.20
15143;DHT22;7672;50.834;6.286;2022-08-21T17:32:11;27.70;74.90
15143;DHT22;7672;50.834;6.286;2022-08-21T17:34:46;27.70;75.30
15143;DHT22;7672;50.834;6.286;2022-08-21T17:37:20;27.60;75.40
15143;DHT22;7672;50.834;6.286;2022-08-21T17:40:13;27.50;75.20
15143;DHT22;7672;50.834;6.286;2022-08-21T17:42:46;27.50;75.50
15143;DHT22;7672;50.834;6.286;2022-08-21T17:45:18;27.40;76.00
15143;DHT22;7672;50.834;6.286;2022-08-21T17:47:51;27.30;76.30
15143;DHT22;7672;50.834;6.286;2022-08-21T17:50:33;27.20;76.60
15143;DHT22;7672;50.834;6.286;2022-08-21T17:53:21;27.20;76.50
15143;DHT22;7672;50.834;6.286;2022-08-21T17:59:28;27.00;77.40
15143;DHT22;7672;50.834;6.286;2022-08-21T18:19:05;26.40;78.40
15143;DHT22;7672;50.834;6.286;2022-08-21T18:34:36;25.80;80.80
15143;DHT22;7672;50.834;6.286;2022-08-21T18:37:07;25.70;81.20
15143;DHT22;7672;50.834;6.286;2022-08-21T18:39:35;25.60;81.00
15143;DHT22;7672;50.834;6.286;2022-08-21T18:42:07;25.50;82.00
15143;DHT22;7672;50.834;6.286;2022-08-21T18:44:36;25.50;82.00